sensor_id;sensor_type;location;lat;lon;timestamp;P1;durP1;ratioP1;P2;durP2;ratioP2
27265;SDS011;14766;51.380;13.762;2023-11-19T00:00:20;6.85;;;4.50;;
27265;SDS011;14766;51.380;13.762;2023-11-19T00:02:47;7.35;;;4.90;;
27265;SDS011;14766;51.380;13.762;2023-11-19T00:05:15;7.35;;;4.45;;
27265;SDS011;14766;51.380;13.762;2023-11-19T00:07:42;8.57;;;4.97;;
27265;SDS011;14766;51.380;13.762;2023-11-19T00:10:13;7.03;;;4.25;;
27265;SDS011;14766;51.380;13.762;2023-11-19T00:12:51;6.93;;;4.35;;
27265;SDS011;14766;51.380;13.762;2023-11-19T00:15:19;5.97;;;4.32;;
27265;SDS011;14766;51.380;13.762;2023-11-19T00:17:47;5.43;;;3.90;;
27265;SDS011;14766;51.380;13.762;2023-11-19T00:20:17;6.00;;;3.78;;
27265;SDS011;14766;51.380;13.762;2023-11-19T00:22:46;6.28;;;4.00;;
27265;SDS011;14766;51.380;13.762;2023-11-19T00:25:16;6.03;;;4.00;;
27265;SDS011;14766;51.380;13.762;2023-11-19T00:27:45;8.15;;;4.55;;
27265;SDS011;14766;51.380;13.762;2023-11-19T00:30:12;6.45;;;4.40;;
27265;SDS011;14766;51.380;13.762;2023-11-19T00:32:41;5.75;;;4.28;;
27265;SDS011;14766;51.380;13.762;2023-11-19T00:35:09;5.68;;;4.53;;
27265;SDS011;14766;51.380;13.762;2023-11-19T00:37:45;7.25;;;4.90;;
27265;SDS011;14766;51.380;13.762;2023-11-19T00:40:14;5.32;;;4.43;;
27265;SDS011;14766;51.380;13.762;2023-11-19T00:42:43;7.13;;;4.97;;
27265;SDS011;14766;51.380;13.762;2023-11-19T00:45:10;6.22;;;5.00;;
27265;SDS011;14766;51.380;13.762;2023-11-19T00:47:39;7.13;;;5.07;;
27265;SDS011;14766;51.380;13.762;2023-11-19T00:50:07;9.27;;;5.38;;
27265;SDS011;14766;51.380;13.762;2023-11-19T00:52:38;6.82;;;5.60;;
27265;SDS011;14766;51.380;13.762;2023-11-19T00:55:05;6.38;;;4.70;;
27265;SDS011;14766;51.380;13.762;2023-11-19T00:57:34;8.23;;;5.10;;
27265;SDS011;14766;51.380;13.762;2023-11-19T01:00:02;6.75;;;5.10;;
27265;SDS011;14766;51.380;13.762;2023-11-19T01:02:41;8.07;;;5.47;;
27265;SDS011;14766;51.380;13.762;2023-11-19T01:05:09;8.48;;;5.95;;
27265;SDS011;14766;51.380;13.762;2023-11-19T01:07:36;6.68;;;4.95;;
27265;SDS011;14766;51.380;13.762;2023-11-19T01:10:03;8.02;;;5.70;;
27265;SDS011;14766;51.380;13.762;2023-11-19T01:12:31;8.35;;;5.57;;
27265;SDS011;14766;51.380;13.762;2023-11-19T01:14:59;8.95;;;5.93;;
27265;SDS011;14766;51.380;13.762;2023-11-19T01:17:27;7.90;;;5.40;;
27265;SDS011;14766;51.380;13.762;2023-11-19T01:19:56;7.63;;;5.40;;
27265;SDS011;14766;51.380;13.762;2023-11-19T01:22:23;9.77;;;5.32;;
27265;SDS011;14766;51.380;13.762;2023-11-19T01:24:50;8.48;;;5.53;;
27265;SDS011;14766;51.380;13.762;2023-11-19T01:27:18;8.70;;;5.85;;
27265;SDS011;14766;51.380;13.762;2023-11-19T01:29:46;9.23;;;6.25;;
27265;SDS011;14766;51.380;13.762;2023-11-19T01:32:12;9.18;;;6.13;;
27265;SDS011;14766;51.380;13.762;2023-11-19T01:34:40;7.82;;;5.40;;
27265;SDS011;14766;51.380;13.762;2023-11-19T01:37:07;8.75;;;6.28;;
27265;SDS011;14766;51.380;13.762;2023-11-19T01:39:39;8.88;;;6.10;;
27265;SDS011;14766;51.380;13.762;2023-11-19T01:42:06;7.93;;;5.75;;
27265;SDS011;14766;51.380;13.762;2023-11-19T01:44:33;8.30;;;5.47;;
27265;SDS011;14766;51.380;13.762;2023-11-19T01:47:00;9.30;;;6.10;;
27265;SDS011;14766;51.380;13.762;2023-11-19T01:49:30;10.15;;;6.30;;
27265;SDS011;14766;51.380;13.762;2023-11-19T01:51:58;8.60;;;5.45;;
27265;SDS011;14766;51.380;13.762;2023-11-19T01:54:25;9.15;;;5.70;;
27265;SDS011;14766;51.380;13.762;2023-11-19T01:56:55;9.82;;;6.15;;
27265;SDS011;14766;51.380;13.762;2023-11-19T01:59:23;10.57;;;6.50;;
27265;SDS011;14766;51.380;13.762;2023-11-19T02:01:53;9.68;;;6.40;;
27265;SDS011;14766;51.380;13.762;2023-11-19T02:04:24;6.07;;;5.05;;
27265;SDS011;14766;51.380;13.762;2023-11-19T02:06:53;7.50;;;5.25;;
27265;SDS011;14766;51.380;13.762;2023-11-19T02:09:23;7.45;;;5.13;;
27265;SDS011;14766;51.380;13.762;2023-11-19T02:11:50;8.80;;;5.50;;
27265;SDS011;14766;51.380;13.762;2023-11-19T02:14:18;8.57;;;6.13;;
27265;SDS011;14766;51.380;13.762;2023-11-19T02:16:46;7.00;;;5.45;;
27265;SDS011;14766;51.380;13.762;2023-11-19T02:19:13;7.85;;;5.18;;
27265;SDS011;14766;51.380;13.762;2023-11-19T02:21:41;7.95;;;5.75;;
27265;SDS011;14766;51.380;13.762;2023-11-19T02:24:09;8.20;;;5.40;;
27265;SDS011;14766;51.380;13.762;2023-11-19T02:29:34;5.90;;;4.38;;
27265;SDS011;14766;51.380;13.762;2023-11-19T02:32:01;5.60;;;4.00;;
27265;SDS011;14766;51.380;13.762;2023-11-19T02:34:29;6.32;;;4.78;;
27265;SDS011;14766;51.380;13.762;2023-11-19T02:36:57;7.78;;;4.20;;
27265;SDS011;14766;51.380;13.762;2023-11-19T02:39:25;7.40;;;4.38;;
27265;SDS011;14766;51.380;13.762;2023-11-19T02:41:53;6.18;;;4.68;;
27265;SDS011;14766;51.380;13.762;2023-11-19T02:44:20;6.82;;;4.72;;
27265;SDS011;14766;51.380;13.762;2023-11-19T02:46:47;5.88;;;4.20;;
27265;SDS011;14766;51.380;13.762;2023-11-19T02:49:15;7.85;;;4.20;;
27265;SDS011;14766;51.380;13.762;2023-11-19T02:51:42;5.45;;;4.22;;
27265;SDS011;14766;51.380;13.762;2023-11-19T02:54:09;4.50;;;3.88;;
27265;SDS011;14766;51.380;13.762;2023-11-19T02:56:36;4.50;;;3.97;;
27265;SDS011;14766;51.380;13.762;2023-11-19T02:59:05;5.45;;;3.83;;
27265;SDS011;14766;51.380;13.762;2023-11-19T03:01:41;4.10;;;3.42;;
27265;SDS011;14766;51.380;13.762;2023-11-19T03:04:10;4.63;;;3.63;;
27265;SDS011;14766;51.380;13.762;2023-11-19T03:06:39;4.35;;;3.25;;
27265;SDS011;14766;51.380;13.762;2023-11-19T03:09:06;5.10;;;3.67;;
27265;SDS011;14766;51.380;13.762;2023-11-19T03:11:37;5.00;;;3.53;;
27265;SDS011;14766;51.380;13.762;2023-11-19T03:14:04;5.28;;;3.35;;
27265;SDS011;14766;51.380;13.762;2023-11-19T03:16:31;5.00;;;3.58;;
27265;SDS011;14766;51.380;13.762;2023-11-19T03:18:59;4.45;;;3.25;;
27265;SDS011;14766;51.380;13.762;2023-11-19T03:21:31;5.50;;;3.28;;
27265;SDS011;14766;51.380;13.762;2023-11-19T03:23:58;4.80;;;2.92;;
27265;SDS011;14766;51.380;13.762;2023-11-19T03:26:27;4.00;;;3.00;;
27265;SDS011;14766;51.380;13.762;2023-11-19T03:28:54;4.90;;;3.33;;
27265;SDS011;14766;51.380;13.762;2023-11-19T03:31:23;4.22;;;3.35;;
27265;SDS011;14766;51.380;13.762;2023-11-19T03:33:52;4.22;;;3.13;;
27265;SDS011;14766;51.380;13.762;2023-11-19T03:36:22;3.92;;;2.88;;
27265;SDS011;14766;51.380;13.762;2023-11-19T03:38:49;3.70;;;2.78;;
27265;SDS011;14766;51.380;13.762;2023-11-19T03:41:17;3.95;;;2.67;;
27265;SDS011;14766;51.380;13.762;2023-11-19T03:43:44;4.20;;;2.80;;
27265;SDS011;14766;51.380;13.762;2023-11-19T03:46:20;3.33;;;2.80;;
27265;SDS011;14766;51.380;13.762;2023-11-19T03:48:48;4.05;;;2.83;;
27265;SDS011;14766;51.380;13.762;2023-11-19T03:51:16;4.35;;;2.90;;
27265;SDS011;14766;51.380;13.762;2023-11-19T03:53:44;2.90;;;2.40;;
27265;SDS011;14766;51.380;13.762;2023-11-19T03:56:12;3.75;;;2.40;;
27265;SDS011;14766;51.380;13.762;2023-11-19T03:58:39;2.88;;;2.42;;
27265;SDS011;14766;51.380;13.762;2023-11-19T04:01:10;4.30;;;2.45;;
27265;SDS011;14766;51.380;13.762;2023-11-19T04:03:40;2.95;;;2.30;;
27265;SDS011;14766;51.380;13.762;2023-11-19T04:06:16;3.05;;;2.40;;
27265;SDS011;14766;51.380;13.762;2023-11-19T04:08:43;4.32;;;2.33;;
27265;SDS011;14766;51.380;13.762;2023-11-19T04:11:11;3.22;;;2.35;;
27265;SDS011;14766;51.380;13.762;2023-11-19T04:13:38;3.70;;;2.38;;
27265;SDS011;14766;51.380;13.762;2023-11-19T04:16:05;2.90;;;2.60;;
27265;SDS011;14766;51.380;13.762;2023-11-19T04:18:33;4.18;;;2.30;;
27265;SDS011;14766;51.380;13.762;2023-11-19T04:21:01;3.40;;;2.70;;
27265;SDS011;14766;51.380;13.762;2023-11-19T04:23:28;3.15;;;2.17;;
27265;SDS011;14766;51.380;13.762;2023-11-19T04:25:55;3.40;;;2.30;;
27265;SDS011;14766;51.380;13.762;2023-11-19T04:28:36;2.28;;;1.95;;
27265;SDS011;14766;51.380;13.762;2023-11-19T04:31:04;3.45;;;1.90;;
27265;SDS011;14766;51.380;13.762;2023-11-19T04:33:32;3.13;;;2.38;;
27265;SDS011;14766;51.380;13.762;2023-11-19T04:35:59;3.10;;;2.00;;
27265;SDS011;14766;51.380;13.762;2023-11-19T04:38:26;2.75;;;1.90;;
27265;SDS011;14766;51.380;13.762;2023-11-19T04:40:53;2.90;;;2.38;;
27265;SDS011;14766;51.380;13.762;2023-11-19T04:43:20;4.05;;;2.10;;
27265;SDS011;14766;51.380;13.762;2023-11-19T04:45:48;3.50;;;2.30;;
27265;SDS011;14766;51.380;13.762;2023-11-19T04:48:15;3.05;;;2.42;;
27265;SDS011;14766;51.380;13.762;2023-11-19T04:50:42;2.95;;;2.42;;
27265;SDS011;14766;51.380;13.762;2023-11-19T04:53:09;3.17;;;2.70;;
27265;SDS011;14766;51.380;13.762;2023-11-19T04:55:36;2.20;;;2.00;;
27265;SDS011;14766;51.380;13.762;2023-11-19T04:58:03;4.25;;;2.65;;
27265;SDS011;14766;51.380;13.762;2023-11-19T05:00:32;3.47;;;2.55;;
27265;SDS011;14766;51.380;13.762;2023-11-19T05:02:59;2.50;;;2.30;;
27265;SDS011;14766;51.380;13.762;2023-11-19T05:05:27;2.88;;;2.38;;
27265;SDS011;14766;51.380;13.762;2023-11-19T05:07:54;3.63;;;2.85;;
27265;SDS011;14766;51.380;13.762;2023-11-19T05:10:21;4.85;;;3.17;;
27265;SDS011;14766;51.380;13.762;2023-11-19T05:12:48;3.67;;;3.20;;
27265;SDS011;14766;51.380;13.762;2023-11-19T05:15:16;4.30;;;2.88;;
27265;SDS011;14766;51.380;13.762;2023-11-19T05:17:43;5.07;;;2.72;;
27265;SDS011;14766;51.380;13.762;2023-11-19T05:20:11;5.35;;;3.13;;
27265;SDS011;14766;51.380;13.762;2023-11-19T05:22:42;4.82;;;3.22;;
27265;SDS011;14766;51.380;13.762;2023-11-19T05:25:09;4.07;;;2.92;;
27265;SDS011;14766;51.380;13.762;2023-11-19T05:27:37;4.53;;;3.30;;
27265;SDS011;14766;51.380;13.762;2023-11-19T05:30:05;6.15;;;3.40;;
27265;SDS011;14766;51.380;13.762;2023-11-19T05:32:39;6.15;;;3.55;;
27265;SDS011;14766;51.380;13.762;2023-11-19T05:35:06;4.20;;;3.55;;
27265;SDS011;14766;51.380;13.762;2023-11-19T05:37:35;3.72;;;2.95;;
27265;SDS011;14766;51.380;13.762;2023-11-19T05:40:02;4.15;;;3.30;;
27265;SDS011;14766;51.380;13.762;2023-11-19T05:42:31;5.60;;;3.53;;
27265;SDS011;14766;51.380;13.762;2023-11-19T05:44:58;4.38;;;3.22;;
27265;SDS011;14766;51.380;13.762;2023-11-19T05:47:26;3.55;;;2.78;;
27265;SDS011;14766;51.380;13.762;2023-11-19T05:49:54;4.13;;;2.88;;
27265;SDS011;14766;51.380;13.762;2023-11-19T05:52:21;5.22;;;3.42;;
27265;SDS011;14766;51.380;13.762;2023-11-19T05:54:49;4.85;;;3.38;;
27265;SDS011;14766;51.380;13.762;2023-11-19T05:57:18;3.92;;;2.90;;
27265;SDS011;14766;51.380;13.762;2023-11-19T05:59:50;3.40;;;2.75;;
27265;SDS011;14766;51.380;13.762;2023-11-19T06:02:18;4.25;;;2.85;;
27265;SDS011;14766;51.380;13.762;2023-11-19T06:04:45;3.55;;;2.88;;
27265;SDS011;14766;51.380;13.762;2023-11-19T06:07:15;5.50;;;3.80;;
27265;SDS011;14766;51.380;13.762;2023-11-19T06:09:46;4.75;;;3.65;;
27265;SDS011;14766;51.380;13.762;2023-11-19T06:12:13;4.53;;;3.85;;
27265;SDS011;14766;51.380;13.762;2023-11-19T06:14:40;4.50;;;3.45;;
27265;SDS011;14766;51.380;13.762;2023-11-19T06:17:07;4.40;;;3.42;;
27265;SDS011;14766;51.380;13.762;2023-11-19T06:19:35;4.72;;;3.05;;
27265;SDS011;14766;51.380;13.762;2023-11-19T06:22:02;4.75;;;2.88;;
27265;SDS011;14766;51.380;13.762;2023-11-19T06:24:29;3.85;;;2.85;;
27265;SDS011;14766;51.380;13.762;2023-11-19T06:26:56;4.72;;;2.80;;
27265;SDS011;14766;51.380;13.762;2023-11-19T06:29:23;4.00;;;3.33;;
27265;SDS011;14766;51.380;13.762;2023-11-19T06:31:51;4.88;;;3.90;;
27265;SDS011;14766;51.380;13.762;2023-11-19T06:34:18;5.38;;;3.58;;
27265;SDS011;14766;51.380;13.762;2023-11-19T06:36:46;5.28;;;3.53;;
27265;SDS011;14766;51.380;13.762;2023-11-19T06:39:15;5.78;;;3.78;;
27265;SDS011;14766;51.380;13.762;2023-11-19T06:41:45;4.55;;;3.47;;
27265;SDS011;14766;51.380;13.762;2023-11-19T06:44:12;4.10;;;3.47;;
27265;SDS011;14766;51.380;13.762;2023-11-19T06:46:40;3.90;;;3.50;;
27265;SDS011;14766;51.380;13.762;2023-11-19T06:49:07;4.97;;;3.80;;
27265;SDS011;14766;51.380;13.762;2023-11-19T06:51:34;4.60;;;3.58;;
27265;SDS011;14766;51.380;13.762;2023-11-19T06:54:01;3.60;;;2.92;;
27265;SDS011;14766;51.380;13.762;2023-11-19T06:56:29;4.18;;;3.13;;
27265;SDS011;14766;51.380;13.762;2023-11-19T06:58:56;5.40;;;3.00;;
27265;SDS011;14766;51.380;13.762;2023-11-19T07:01:23;4.45;;;2.65;;
27265;SDS011;14766;51.380;13.762;2023-11-19T07:03:50;3.78;;;3.13;;
27265;SDS011;14766;51.380;13.762;2023-11-19T07:06:17;3.33;;;2.80;;
27265;SDS011;14766;51.380;13.762;2023-11-19T07:08:45;3.38;;;2.58;;
27265;SDS011;14766;51.380;13.762;2023-11-19T07:11:12;3.17;;;2.30;;
27265;SDS011;14766;51.380;13.762;2023-11-19T07:13:42;4.20;;;3.65;;
27265;SDS011;14766;51.380;13.762;2023-11-19T07:16:09;3.33;;;2.60;;
27265;SDS011;14766;51.380;13.762;2023-11-19T07:18:36;2.95;;;2.40;;
27265;SDS011;14766;51.380;13.762;2023-11-19T07:21:04;2.50;;;2.30;;
27265;SDS011;14766;51.380;13.762;2023-11-19T07:23:31;3.70;;;2.70;;
27265;SDS011;14766;51.380;13.762;2023-11-19T07:26:00;2.42;;;2.03;;
27265;SDS011;14766;51.380;13.762;2023-11-19T07:28:28;2.13;;;1.85;;
27265;SDS011;14766;51.380;13.762;2023-11-19T07:30:55;2.92;;;2.42;;
27265;SDS011;14766;51.380;13.762;2023-11-19T07:33:26;2.10;;;1.70;;
27265;SDS011;14766;51.380;13.762;2023-11-19T07:35:53;1.92;;;1.70;;
27265;SDS011;14766;51.380;13.762;2023-11-19T07:38:20;2.72;;;2.13;;
27265;SDS011;14766;51.380;13.762;2023-11-19T07:40:47;2.45;;;1.95;;
27265;SDS011;14766;51.380;13.762;2023-11-19T07:43:17;3.63;;;2.10;;
27265;SDS011;14766;51.380;13.762;2023-11-19T07:45:44;3.20;;;2.10;;
27265;SDS011;14766;51.380;13.762;2023-11-19T07:48:12;3.15;;;2.20;;
27265;SDS011;14766;51.380;13.762;2023-11-19T07:50:40;2.53;;;1.80;;
27265;SDS011;14766;51.380;13.762;2023-11-19T07:53:07;3.55;;;2.17;;
27265;SDS011;14766;51.380;13.762;2023-11-19T07:55:35;2.92;;;1.65;;
27265;SDS011;14766;51.380;13.762;2023-11-19T07:58:02;1.90;;;1.65;;
27265;SDS011;14766;51.380;13.762;2023-11-19T08:00:29;8.07;;;4.53;;
27265;SDS011;14766;51.380;13.762;2023-11-19T08:02:56;3.92;;;2.08;;
27265;SDS011;14766;51.380;13.762;2023-11-19T08:05:24;3.10;;;1.67;;
27265;SDS011;14766;51.380;13.762;2023-11-19T08:07:52;3.22;;;2.00;;
27265;SDS011;14766;51.380;13.762;2023-11-19T08:10:19;2.85;;;2.30;;
27265;SDS011;14766;51.380;13.762;2023-11-19T08:12:46;2.33;;;1.80;;
27265;SDS011;14766;51.380;13.762;2023-11-19T08:15:14;2.22;;;1.60;;
27265;SDS011;14766;51.380;13.762;2023-11-19T08:17:58;3.75;;;2.25;;
27265;SDS011;14766;51.380;13.762;2023-11-19T08:20:25;2.20;;;1.90;;
27265;SDS011;14766;51.380;13.762;2023-11-19T08:22:53;2.60;;;2.00;;
27265;SDS011;14766;51.380;13.762;2023-11-19T08:25:20;2.63;;;1.80;;
27265;SDS011;14766;51.380;13.762;2023-11-19T08:27:48;2.40;;;1.90;;
27265;SDS011;14766;51.380;13.762;2023-11-19T08:30:15;4.55;;;3.33;;
27265;SDS011;14766;51.380;13.762;2023-11-19T08:32:43;4.07;;;3.55;;
27265;SDS011;14766;51.380;13.762;2023-11-19T08:35:10;3.80;;;3.00;;
27265;SDS011;14766;51.380;13.762;2023-11-19T08:37:37;2.40;;;1.85;;
27265;SDS011;14766;51.380;13.762;2023-11-19T08:40:05;2.08;;;1.58;;
27265;SDS011;14766;51.380;13.762;2023-11-19T08:42:34;1.55;;;1.30;;
27265;SDS011;14766;51.380;13.762;2023-11-19T08:45:01;2.30;;;1.52;;
27265;SDS011;14766;51.380;13.762;2023-11-19T08:47:28;1.55;;;1.23;;
27265;SDS011;14766;51.380;13.762;2023-11-19T08:49:56;1.80;;;1.55;;
27265;SDS011;14766;51.380;13.762;2023-11-19T08:52:26;3.00;;;2.15;;
27265;SDS011;14766;51.380;13.762;2023-11-19T08:54:53;2.20;;;1.55;;
27265;SDS011;14766;51.380;13.762;2023-11-19T08:57:20;5.78;;;3.45;;
27265;SDS011;14766;51.380;13.762;2023-11-19T08:59:47;4.45;;;3.40;;
27265;SDS011;14766;51.380;13.762;2023-11-19T09:02:14;3.90;;;2.58;;
27265;SDS011;14766;51.380;13.762;2023-11-19T09:04:42;4.00;;;2.63;;
27265;SDS011;14766;51.380;13.762;2023-11-19T09:07:09;2.40;;;1.70;;
27265;SDS011;14766;51.380;13.762;2023-11-19T09:09:36;2.80;;;2.17;;
27265;SDS011;14766;51.380;13.762;2023-11-19T09:12:04;3.83;;;1.55;;
27265;SDS011;14766;51.380;13.762;2023-11-19T09:14:31;2.30;;;1.48;;
27265;SDS011;14766;51.380;13.762;2023-11-19T09:16:58;2.58;;;1.70;;
27265;SDS011;14766;51.380;13.762;2023-11-19T09:19:26;1.58;;;1.40;;
27265;SDS011;14766;51.380;13.762;2023-11-19T09:21:53;2.05;;;1.85;;
27265;SDS011;14766;51.380;13.762;2023-11-19T09:24:20;2.03;;;1.42;;
27265;SDS011;14766;51.380;13.762;2023-11-19T09:26:47;1.67;;;1.30;;
27265;SDS011;14766;51.380;13.762;2023-11-19T09:29:14;2.13;;;1.20;;
27265;SDS011;14766;51.380;13.762;2023-11-19T09:31:43;1.58;;;0.80;;
27265;SDS011;14766;51.380;13.762;2023-11-19T09:34:10;1.38;;;0.82;;
27265;SDS011;14766;51.380;13.762;2023-11-19T09:36:37;1.38;;;1.20;;
27265;SDS011;14766;51.380;13.762;2023-11-19T09:39:05;2.30;;;1.13;;
27265;SDS011;14766;51.380;13.762;2023-11-19T09:41:34;3.97;;;1.35;;
27265;SDS011;14766;51.380;13.762;2023-11-19T09:44:02;2.97;;;2.25;;
27265;SDS011;14766;51.380;13.762;2023-11-19T09:46:29;2.28;;;1.63;;
27265;SDS011;14766;51.380;13.762;2023-11-19T09:48:58;2.13;;;1.50;;
27265;SDS011;14766;51.380;13.762;2023-11-19T09:51:26;3.72;;;1.20;;
27265;SDS011;14766;51.380;13.762;2023-11-19T09:53:53;2.28;;;0.93;;
27265;SDS011;14766;51.380;13.762;2023-11-19T09:56:20;2.72;;;0.90;;
27265;SDS011;14766;51.380;13.762;2023-11-19T09:58:48;1.73;;;0.90;;
27265;SDS011;14766;51.380;13.762;2023-11-19T10:01:16;1.80;;;1.13;;
27265;SDS011;14766;51.380;13.762;2023-11-19T10:03:46;4.30;;;1.17;;
27265;SDS011;14766;51.380;13.762;2023-11-19T10:06:15;3.22;;;1.10;;
27265;SDS011;14766;51.380;13.762;2023-11-19T10:08:43;3.30;;;1.17;;
27265;SDS011;14766;51.380;13.762;2023-11-19T10:11:10;1.65;;;0.90;;
27265;SDS011;14766;51.380;13.762;2023-11-19T10:13:39;1.92;;;0.82;;
27265;SDS011;14766;51.380;13.762;2023-11-19T10:16:09;3.40;;;1.00;;
27265;SDS011;14766;51.380;13.762;2023-11-19T10:18:45;4.28;;;1.20;;
27265;SDS011;14766;51.380;13.762;2023-11-19T10:21:13;1.83;;;0.90;;
27265;SDS011;14766;51.380;13.762;2023-11-19T10:23:51;2.78;;;1.52;;
27265;SDS011;14766;51.380;13.762;2023-11-19T10:26:20;2.53;;;1.10;;
27265;SDS011;14766;51.380;13.762;2023-11-19T10:28:47;3.10;;;0.60;;
27265;SDS011;14766;51.380;13.762;2023-11-19T10:31:19;2.95;;;1.00;;
27265;SDS011;14766;51.380;13.762;2023-11-19T10:33:52;2.42;;;1.17;;
27265;SDS011;14766;51.380;13.762;2023-11-19T10:36:20;1.83;;;1.17;;
27265;SDS011;14766;51.380;13.762;2023-11-19T10:38:53;3.15;;;1.65;;
27265;SDS011;14766;51.380;13.762;2023-11-19T10:41:28;4.82;;;1.60;;
27265;SDS011;14766;51.380;13.762;2023-11-19T10:43:59;2.90;;;0.90;;
27265;SDS011;14766;51.380;13.762;2023-11-19T10:46:36;4.15;;;1.40;;
27265;SDS011;14766;51.380;13.762;2023-11-19T10:49:08;4.75;;;1.70;;
27265;SDS011;14766;51.380;13.762;2023-11-19T10:51:37;3.35;;;1.40;;
27265;SDS011;14766;51.380;13.762;2023-11-19T10:54:12;3.85;;;1.00;;
27265;SDS011;14766;51.380;13.762;2023-11-19T10:56:41;2.08;;;1.23;;
27265;SDS011;14766;51.380;13.762;2023-11-19T10:59:11;5.28;;;1.20;;
27265;SDS011;14766;51.380;13.762;2023-11-19T11:01:43;4.28;;;0.90;;
27265;SDS011;14766;51.380;13.762;2023-11-19T11:04:14;2.42;;;1.30;;
27265;SDS011;14766;51.380;13.762;2023-11-19T11:06:45;2.67;;;0.93;;
27265;SDS011;14766;51.380;13.762;2023-11-19T11:09:14;3.60;;;1.00;;
27265;SDS011;14766;51.380;13.762;2023-11-19T11:11:48;1.65;;;0.80;;
27265;SDS011;14766;51.380;13.762;2023-11-19T11:14:19;3.53;;;0.90;;
27265;SDS011;14766;51.380;13.762;2023-11-19T11:16:48;2.50;;;0.90;;
27265;SDS011;14766;51.380;13.762;2023-11-19T11:19:16;2.50;;;1.35;;
27265;SDS011;14766;51.380;13.762;2023-11-19T11:21:49;2.80;;;1.10;;
27265;SDS011;14766;51.380;13.762;2023-11-19T11:32:43;4.55;;;2.60;;
27265;SDS011;14766;51.380;13.762;2023-11-19T11:38:08;2.70;;;1.50;;
27265;SDS011;14766;51.380;13.762;2023-11-19T11:40:35;3.05;;;1.38;;
27265;SDS011;14766;51.380;13.762;2023-11-19T11:43:02;2.78;;;1.33;;
27265;SDS011;14766;51.380;13.762;2023-11-19T11:45:36;6.50;;;1.70;;
27265;SDS011;14766;51.380;13.762;2023-11-19T11:48:19;3.38;;;1.73;;
27265;SDS011;14766;51.380;13.762;2023-11-19T11:50:47;3.60;;;1.70;;
27265;SDS011;14766;51.380;13.762;2023-11-19T11:53:17;4.20;;;1.60;;
27265;SDS011;14766;51.380;13.762;2023-11-19T11:58:19;12.55;;;5.78;;
27265;SDS011;14766;51.380;13.762;2023-11-19T12:00:58;11.77;;;4.13;;
27265;SDS011;14766;51.380;13.762;2023-11-19T12:03:27;12.20;;;4.93;;
27265;SDS011;14766;51.380;13.762;2023-11-19T12:05:55;12.05;;;4.43;;
27265;SDS011;14766;51.380;13.762;2023-11-19T12:08:27;13.98;;;5.72;;
27265;SDS011;14766;51.380;13.762;2023-11-19T12:10:57;12.63;;;4.80;;
27265;SDS011;14766;51.380;13.762;2023-11-19T12:13:47;18.35;;;7.70;;
27265;SDS011;14766;51.380;13.762;2023-11-19T12:16:15;14.27;;;5.47;;
27265;SDS011;14766;51.380;13.762;2023-11-19T12:18:42;17.88;;;6.40;;
27265;SDS011;14766;51.380;13.762;2023-11-19T12:21:10;8.60;;;3.15;;
27265;SDS011;14766;51.380;13.762;2023-11-19T12:23:44;5.30;;;2.78;;
27265;SDS011;14766;51.380;13.762;2023-11-19T12:29:01;5.60;;;2.70;;
27265;SDS011;14766;51.380;13.762;2023-11-19T12:31:34;4.32;;;2.40;;
27265;SDS011;14766;51.380;13.762;2023-11-19T12:34:06;4.53;;;2.45;;
27265;SDS011;14766;51.380;13.762;2023-11-19T12:36:39;5.60;;;2.25;;
27265;SDS011;14766;51.380;13.762;2023-11-19T12:39:06;4.78;;;2.42;;
27265;SDS011;14766;51.380;13.762;2023-11-19T12:41:48;7.47;;;1.90;;
27265;SDS011;14766;51.380;13.762;2023-11-19T12:44:16;4.68;;;2.25;;
27265;SDS011;14766;51.380;13.762;2023-11-19T12:46:43;4.15;;;2.58;;
27265;SDS011;14766;51.380;13.762;2023-11-19T12:49:10;4.90;;;2.33;;
27265;SDS011;14766;51.380;13.762;2023-11-19T12:51:38;4.95;;;2.03;;
27265;SDS011;14766;51.380;13.762;2023-11-19T12:54:05;5.53;;;1.60;;
27265;SDS011;14766;51.380;13.762;2023-11-19T12:56:32;6.97;;;2.92;;
27265;SDS011;14766;51.380;13.762;2023-11-19T12:59:09;10.57;;;4.80;;
27265;SDS011;14766;51.380;13.762;2023-11-19T13:01:38;11.25;;;4.80;;
27265;SDS011;14766;51.380;13.762;2023-11-19T13:04:16;8.30;;;3.45;;
27265;SDS011;14766;51.380;13.762;2023-11-19T13:06:46;8.30;;;2.70;;
27265;SDS011;14766;51.380;13.762;2023-11-19T13:09:30;8.27;;;2.83;;
27265;SDS011;14766;51.380;13.762;2023-11-19T13:11:58;5.82;;;2.45;;
27265;SDS011;14766;51.380;13.762;2023-11-19T13:14:36;7.88;;;2.72;;
27265;SDS011;14766;51.380;13.762;2023-11-19T13:17:07;8.05;;;2.38;;
27265;SDS011;14766;51.380;13.762;2023-11-19T13:19:46;7.10;;;2.17;;
27265;SDS011;14766;51.380;13.762;2023-11-19T13:22:37;5.88;;;2.45;;
27265;SDS011;14766;51.380;13.762;2023-11-19T13:25:05;5.07;;;1.88;;
27265;SDS011;14766;51.380;13.762;2023-11-19T13:27:32;6.50;;;2.53;;
27265;SDS011;14766;51.380;13.762;2023-11-19T13:30:04;5.95;;;1.95;;
27265;SDS011;14766;51.380;13.762;2023-11-19T13:32:33;8.48;;;2.22;;
27265;SDS011;14766;51.380;13.762;2023-11-19T13:35:00;5.00;;;1.83;;
27265;SDS011;14766;51.380;13.762;2023-11-19T13:37:29;4.75;;;2.00;;
27265;SDS011;14766;51.380;13.762;2023-11-19T13:39:57;8.10;;;2.58;;
27265;SDS011;14766;51.380;13.762;2023-11-19T13:42:24;5.55;;;2.30;;
27265;SDS011;14766;51.380;13.762;2023-11-19T13:44:51;7.78;;;2.33;;
27265;SDS011;14766;51.380;13.762;2023-11-19T13:47:18;6.72;;;2.17;;
27265;SDS011;14766;51.380;13.762;2023-11-19T13:49:45;9.77;;;2.50;;
27265;SDS011;14766;51.380;13.762;2023-11-19T13:52:12;7.30;;;2.28;;
27265;SDS011;14766;51.380;13.762;2023-11-19T13:54:39;9.45;;;2.63;;
27265;SDS011;14766;51.380;13.762;2023-11-19T13:57:06;5.97;;;2.10;;
27265;SDS011;14766;51.380;13.762;2023-11-19T13:59:37;5.57;;;2.13;;
27265;SDS011;14766;51.380;13.762;2023-11-19T14:02:06;8.55;;;2.78;;
27265;SDS011;14766;51.380;13.762;2023-11-19T14:04:34;8.85;;;2.80;;
27265;SDS011;14766;51.380;13.762;2023-11-19T14:07:01;8.50;;;2.47;;
27265;SDS011;14766;51.380;13.762;2023-11-19T14:09:28;10.30;;;3.15;;
27265;SDS011;14766;51.380;13.762;2023-11-19T14:11:56;6.80;;;2.17;;
27265;SDS011;14766;51.380;13.762;2023-11-19T14:14:23;8.60;;;2.58;;
27265;SDS011;14766;51.380;13.762;2023-11-19T14:16:50;7.45;;;2.20;;
27265;SDS011;14766;51.380;13.762;2023-11-19T14:19:17;12.00;;;2.85;;
27265;SDS011;14766;51.380;13.762;2023-11-19T14:21:44;9.98;;;2.72;;
27265;SDS011;14766;51.380;13.762;2023-11-19T14:24:12;6.53;;;2.45;;
27265;SDS011;14766;51.380;13.762;2023-11-19T14:26:40;5.50;;;2.15;;
27265;SDS011;14766;51.380;13.762;2023-11-19T14:29:07;8.25;;;2.72;;
27265;SDS011;14766;51.380;13.762;2023-11-19T14:31:34;6.65;;;2.97;;
27265;SDS011;14766;51.380;13.762;2023-11-19T14:34:02;10.10;;;3.05;;
27265;SDS011;14766;51.380;13.762;2023-11-19T14:36:29;8.52;;;2.40;;
27265;SDS011;14766;51.380;13.762;2023-11-19T14:38:56;8.00;;;2.60;;
27265;SDS011;14766;51.380;13.762;2023-11-19T14:41:25;7.88;;;2.72;;
27265;SDS011;14766;51.380;13.762;2023-11-19T14:43:52;9.63;;;2.85;;
27265;SDS011;14766;51.380;13.762;2023-11-19T14:46:20;8.90;;;2.97;;
27265;SDS011;14766;51.380;13.762;2023-11-19T14:48:47;9.48;;;2.97;;
27265;SDS011;14766;51.380;13.762;2023-11-19T14:51:15;9.57;;;3.88;;
27265;SDS011;14766;51.380;13.762;2023-11-19T14:53:42;12.32;;;3.78;;
27265;SDS011;14766;51.380;13.762;2023-11-19T14:56:10;14.38;;;4.38;;
27265;SDS011;14766;51.380;13.762;2023-11-19T14:58:39;12.07;;;3.92;;
27265;SDS011;14766;51.380;13.762;2023-11-19T15:01:11;11.10;;;3.50;;